﻿<?xml version="1.0" encoding="UTF-8" standalone="no" ?>
<gpx xmlns="http://www.topografix.com/GPX/1/1" creator="CompeGPS" version="1.1" xmlns:xsi="http://www.w3.org/2001/XMLSchema-instance" xsi:schemaLocation="http://www.topografix.com/GPX/1/1 http://www.topografix.com/GPX/1/1/gpx.xsd http://www.garmin.com/xmlschemas/GpxExtensions/v3 http://www.garmin.com/xmlschemas/GpxExtensionsv3.xsd http://www.garmin.com/xmlschemas/TrackPointExtension/v1 http://www.garmin.com/xmlschemas/TrackPointExtensionv1.xsd" xmlns:gpxtpx="http://www.garmin.com/xmlschemas/TrackPointExtension/v1">
  <trk>
    <name>PR-CC 64 Ruta de la Pinuela (GPX)</name>
    <desc>PR-CC 64</desc>
    <trkseg>
      <trkpt lat="39.726324" lon="-5.744806">
        <ele>440.0</ele>
        <time>2019-05-09T13:26:16Z</time>
      </trkpt>
      <trkpt lat="39.726107" lon="-5.744676">
        <ele>441.0</ele>
        <time>2019-05-09T13:27:11Z</time>
      </trkpt>
      <trkpt lat="39.726060" lon="-5.744612">
        <ele>442.0</ele>
        <time>2019-05-09T13:27:14Z</time>
      </trkpt>
      <trkpt lat="39.726015" lon="-5.744556">
        <ele>443.0</ele>
        <time>2019-05-09T13:27:19Z</time>
      </trkpt>
      <trkpt lat="39.725925" lon="-5.744432">
        <ele>443.0</ele>
        <time>2019-05-09T13:27:26Z</time>
      </trkpt>
      <trkpt lat="39.725731" lon="-5.744213">
        <ele>447.0</ele>
        <time>2019-05-09T13:27:41Z</time>
      </trkpt>
      <trkpt lat="39.725764" lon="-5.744131">
        <ele>447.0</ele>
        <time>2019-05-09T13:27:55Z</time>
      </trkpt>
      <trkpt lat="39.725769" lon="-5.744050">
        <ele>448.0</ele>
        <time>2019-05-09T13:28:24Z</time>
      </trkpt>
      <trkpt lat="39.725604" lon="-5.743778">
        <ele>454.0</ele>
        <time>2019-05-09T13:28:52Z</time>
      </trkpt>
      <trkpt lat="39.725457" lon="-5.743422">
        <ele>458.0</ele>
        <time>2019-05-09T13:29:10Z</time>
      </trkpt>
      <trkpt lat="39.725342" lon="-5.743256">
        <ele>459.0</ele>
        <time>2019-05-09T13:29:17Z</time>
      </trkpt>
      <trkpt lat="39.725198" lon="-5.743301">
        <ele>461.0</ele>
        <time>2019-05-09T13:30:30Z</time>
      </trkpt>
      <trkpt lat="39.725194" lon="-5.743220">
        <ele>460.0</ele>
        <time>2019-05-09T13:30:39Z</time>
      </trkpt>
      <trkpt lat="39.725045" lon="-5.742881">
        <ele>460.0</ele>
        <time>2019-05-09T13:30:50Z</time>
      </trkpt>
      <trkpt lat="39.724750" lon="-5.742728">
        <ele>460.1</ele>
        <time>2019-05-09T13:30:50Z</time>
      </trkpt>
      <trkpt lat="39.724298" lon="-5.742416">
        <ele>460.1</ele>
        <time>2019-05-09T13:30:50Z</time>
      </trkpt>
      <trkpt lat="39.724030" lon="-5.742277">
        <ele>462.7</ele>
        <time>2019-05-09T13:31:24Z</time>
      </trkpt>
      <trkpt lat="39.723877" lon="-5.742121">
        <ele>462.7</ele>
        <time>2019-05-09T13:31:24Z</time>
      </trkpt>
      <trkpt lat="39.723854" lon="-5.742062">
        <ele>464.7</ele>
        <time>2019-05-09T13:31:39Z</time>
      </trkpt>
      <trkpt lat="39.723807" lon="-5.741993">
        <ele>464.7</ele>
        <time>2019-05-09T13:31:39Z</time>
      </trkpt>
      <trkpt lat="39.723589" lon="-5.741597">
        <ele>466.3</ele>
        <time>2019-05-09T13:31:54Z</time>
      </trkpt>
      <trkpt lat="39.723366" lon="-5.741168">
        <ele>467.5</ele>
        <time>2019-05-09T13:32:07Z</time>
      </trkpt>
      <trkpt lat="39.722988" lon="-5.740335">
        <ele>467.7</ele>
        <time>2019-05-09T13:32:21Z</time>
      </trkpt>
      <trkpt lat="39.722955" lon="-5.740276">
        <ele>465.2</ele>
        <time>2019-05-09T13:32:33Z</time>
      </trkpt>
      <trkpt lat="39.722897" lon="-5.740220">
        <ele>464.4</ele>
        <time>2019-05-09T13:32:58Z</time>
      </trkpt>
      <trkpt lat="39.722832" lon="-5.740097">
        <ele>465.0</ele>
        <time>2019-05-09T13:33:14Z</time>
      </trkpt>
      <trkpt lat="39.722799" lon="-5.739901">
        <ele>465.3</ele>
        <time>2019-05-09T13:33:15Z</time>
      </trkpt>
      <trkpt lat="39.722668" lon="-5.739692">
        <ele>466.5</ele>
        <time>2019-05-09T13:33:30Z</time>
      </trkpt>
      <trkpt lat="39.722336" lon="-5.739305">
        <ele>466.4</ele>
        <time>2019-05-09T13:33:45Z</time>
      </trkpt>
      <trkpt lat="39.721961" lon="-5.738758">
        <ele>466.1</ele>
        <time>2019-05-09T13:33:58Z</time>
      </trkpt>
      <trkpt lat="39.721892" lon="-5.738371">
        <ele>465.7</ele>
        <time>2019-05-09T13:34:09Z</time>
      </trkpt>
      <trkpt lat="39.721810" lon="-5.738195">
        <ele>465.7</ele>
        <time>2019-05-09T13:34:09Z</time>
      </trkpt>
      <trkpt lat="39.721734" lon="-5.738054">
        <ele>465.5</ele>
        <time>2019-05-09T13:34:22Z</time>
      </trkpt>
      <trkpt lat="39.721519" lon="-5.737785">
        <ele>464.4</ele>
        <time>2019-05-09T13:34:23Z</time>
      </trkpt>
      <trkpt lat="39.721437" lon="-5.737717">
        <ele>464.0</ele>
        <time>2019-05-09T13:34:25Z</time>
      </trkpt>
      <trkpt lat="39.721360" lon="-5.737570">
        <ele>463.5</ele>
        <time>2019-05-09T13:34:27Z</time>
      </trkpt>
      <trkpt lat="39.721340" lon="-5.737436">
        <ele>463.5</ele>
        <time>2019-05-09T13:34:27Z</time>
      </trkpt>
      <trkpt lat="39.721342" lon="-5.737111">
        <ele>462.9</ele>
        <time>2019-05-09T13:34:33Z</time>
      </trkpt>
      <trkpt lat="39.721282" lon="-5.736906">
        <ele>463.2</ele>
        <time>2019-05-09T13:34:37Z</time>
      </trkpt>
      <trkpt lat="39.721235" lon="-5.736835">
        <ele>463.4</ele>
        <time>2019-05-09T13:34:39Z</time>
      </trkpt>
      <trkpt lat="39.720560" lon="-5.736288">
        <ele>467.0</ele>
        <time>2019-05-09T13:35:22Z</time>
      </trkpt>
      <trkpt lat="39.720483" lon="-5.736220">
        <ele>467.0</ele>
        <time>2019-05-09T13:35:22Z</time>
      </trkpt>
      <trkpt lat="39.720414" lon="-5.736082">
        <ele>467.4</ele>
        <time>2019-05-09T13:35:34Z</time>
      </trkpt>
      <trkpt lat="39.720346" lon="-5.735799">
        <ele>467.5</ele>
        <time>2019-05-09T13:35:47Z</time>
      </trkpt>
      <trkpt lat="39.720265" lon="-5.735628">
        <ele>467.5</ele>
        <time>2019-05-09T13:35:47Z</time>
      </trkpt>
      <trkpt lat="39.719917" lon="-5.735149">
        <ele>467.4</ele>
        <time>2019-05-09T13:36:01Z</time>
      </trkpt>
      <trkpt lat="39.719851" lon="-5.735018">
        <ele>467.8</ele>
        <time>2019-05-09T13:36:06Z</time>
      </trkpt>
      <trkpt lat="39.719837" lon="-5.734865">
        <ele>468.1</ele>
        <time>2019-05-09T13:36:07Z</time>
      </trkpt>
      <trkpt lat="39.719877" lon="-5.734753">
        <ele>467.5</ele>
        <time>2019-05-09T13:36:08Z</time>
      </trkpt>
      <trkpt lat="39.719932" lon="-5.734637">
        <ele>467.1</ele>
        <time>2019-05-09T13:36:11Z</time>
      </trkpt>
      <trkpt lat="39.719952" lon="-5.734534">
        <ele>467.2</ele>
        <time>2019-05-09T13:36:13Z</time>
      </trkpt>
      <trkpt lat="39.719935" lon="-5.734297">
        <ele>467.2</ele>
        <time>2019-05-09T13:36:13Z</time>
      </trkpt>
      <trkpt lat="39.719813" lon="-5.734043">
        <ele>468.2</ele>
        <time>2019-05-09T13:36:17Z</time>
      </trkpt>
      <trkpt lat="39.719641" lon="-5.733872">
        <ele>467.9</ele>
        <time>2019-05-09T13:36:30Z</time>
      </trkpt>
      <trkpt lat="39.719481" lon="-5.733750">
        <ele>467.9</ele>
        <time>2019-05-09T13:36:30Z</time>
      </trkpt>
      <trkpt lat="39.719284" lon="-5.733644">
        <ele>468.4</ele>
        <time>2019-05-09T13:36:38Z</time>
      </trkpt>
      <trkpt lat="39.719233" lon="-5.733589">
        <ele>468.9</ele>
        <time>2019-05-09T13:36:39Z</time>
      </trkpt>
      <trkpt lat="39.719161" lon="-5.733420">
        <ele>468.9</ele>
        <time>2019-05-09T13:36:39Z</time>
      </trkpt>
      <trkpt lat="39.719097" lon="-5.733208">
        <ele>468.3</ele>
        <time>2019-05-09T13:36:49Z</time>
      </trkpt>
      <trkpt lat="39.719008" lon="-5.733101">
        <ele>469.0</ele>
        <time>2019-05-09T13:36:51Z</time>
      </trkpt>
      <trkpt lat="39.718699" lon="-5.732944">
        <ele>478.6</ele>
        <time>2019-05-09T13:37:10Z</time>
      </trkpt>
      <trkpt lat="39.718497" lon="-5.732685">
        <ele>478.6</ele>
        <time>2019-05-09T13:37:10Z</time>
      </trkpt>
      <trkpt lat="39.718249" lon="-5.732465">
        <ele>481.7</ele>
        <time>2019-05-09T13:37:34Z</time>
      </trkpt>
      <trkpt lat="39.718202" lon="-5.732398">
        <ele>481.7</ele>
        <time>2019-05-09T13:37:34Z</time>
      </trkpt>
      <trkpt lat="39.718189" lon="-5.732267">
        <ele>481.7</ele>
        <time>2019-05-09T13:37:34Z</time>
      </trkpt>
      <trkpt lat="39.718218" lon="-5.732210">
        <ele>480.9</ele>
        <time>2019-05-09T13:37:45Z</time>
      </trkpt>
      <trkpt lat="39.718274" lon="-5.731960">
        <ele>480.2</ele>
        <time>2019-05-09T13:37:55Z</time>
      </trkpt>
      <trkpt lat="39.718334" lon="-5.730867">
        <ele>471.8</ele>
        <time>2019-05-09T13:38:12Z</time>
      </trkpt>
      <trkpt lat="39.718179" lon="-5.730419">
        <ele>471.8</ele>
        <time>2019-05-09T13:38:12Z</time>
      </trkpt>
      <trkpt lat="39.718113" lon="-5.730287">
        <ele>471.0</ele>
        <time>2019-05-09T13:38:40Z</time>
      </trkpt>
      <trkpt lat="39.717886" lon="-5.729735">
        <ele>470.3</ele>
        <time>2019-05-09T13:38:54Z</time>
      </trkpt>
      <trkpt lat="39.717632" lon="-5.729282">
        <ele>472.6</ele>
        <time>2019-05-09T13:39:06Z</time>
      </trkpt>
      <trkpt lat="39.717668" lon="-5.728892">
        <ele>475.1</ele>
        <time>2019-05-09T13:39:18Z</time>
      </trkpt>
      <trkpt lat="39.717576" lon="-5.728598">
        <ele>475.1</ele>
        <time>2019-05-09T13:39:18Z</time>
      </trkpt>
      <trkpt lat="39.717481" lon="-5.728468">
        <ele>475.0</ele>
        <time>2019-05-09T13:39:31Z</time>
      </trkpt>
      <trkpt lat="39.717282" lon="-5.728120">
        <ele>473.5</ele>
        <time>2019-05-09T13:40:04Z</time>
      </trkpt>
      <trkpt lat="39.717140" lon="-5.727925">
        <ele>472.2</ele>
        <time>2019-05-09T13:40:27Z</time>
      </trkpt>
      <trkpt lat="39.716866" lon="-5.727797">
        <ele>474.1</ele>
        <time>2019-05-09T13:40:38Z</time>
      </trkpt>
      <trkpt lat="39.716753" lon="-5.727482">
        <ele>474.1</ele>
        <time>2019-05-09T13:40:38Z</time>
      </trkpt>
      <trkpt lat="39.716545" lon="-5.727195">
        <ele>474.1</ele>
        <time>2019-05-09T13:40:49Z</time>
      </trkpt>
      <trkpt lat="39.716380" lon="-5.727010">
        <ele>477.0</ele>
        <time>2019-05-09T13:40:52Z</time>
      </trkpt>
      <trkpt lat="39.716347" lon="-5.726956">
        <ele>477.0</ele>
        <time>2019-05-09T13:40:52Z</time>
      </trkpt>
      <trkpt lat="39.716384" lon="-5.726562">
        <ele>473.9</ele>
        <time>2019-05-09T13:40:59Z</time>
      </trkpt>
      <trkpt lat="39.716351" lon="-5.726264">
        <ele>474.7</ele>
        <time>2019-05-09T13:41:08Z</time>
      </trkpt>
      <trkpt lat="39.716268" lon="-5.726058">
        <ele>474.8</ele>
        <time>2019-05-09T13:41:10Z</time>
      </trkpt>
      <trkpt lat="39.716023" lon="-5.725743">
        <ele>474.7</ele>
        <time>2019-05-09T13:41:17Z</time>
      </trkpt>
      <trkpt lat="39.715734" lon="-5.725497">
        <ele>474.4</ele>
        <time>2019-05-09T13:41:25Z</time>
      </trkpt>
      <trkpt lat="39.715707" lon="-5.725403">
        <ele>474.4</ele>
        <time>2019-05-09T13:41:25Z</time>
      </trkpt>
      <trkpt lat="39.715817" lon="-5.724907">
        <ele>473.8</ele>
        <time>2019-05-09T13:41:27Z</time>
      </trkpt>
      <trkpt lat="39.715843" lon="-5.724617">
        <ele>473.0</ele>
        <time>2019-05-09T13:43:13Z</time>
      </trkpt>
      <trkpt lat="39.715843" lon="-5.724379">
        <ele>473.0</ele>
        <time>2019-05-09T13:43:13Z</time>
      </trkpt>
      <trkpt lat="39.715807" lon="-5.724221">
        <ele>474.4</ele>
        <time>2019-05-09T13:43:30Z</time>
      </trkpt>
      <trkpt lat="39.715707" lon="-5.723906">
        <ele>474.4</ele>
        <time>2019-05-09T13:43:30Z</time>
      </trkpt>
      <trkpt lat="39.715625" lon="-5.723740">
        <ele>476.8</ele>
        <time>2019-05-09T13:43:45Z</time>
      </trkpt>
      <trkpt lat="39.715546" lon="-5.723652">
        <ele>476.8</ele>
        <time>2019-05-09T13:43:45Z</time>
      </trkpt>
      <trkpt lat="39.715272" lon="-5.723418">
        <ele>476.8</ele>
        <time>2019-05-09T13:43:45Z</time>
      </trkpt>
      <trkpt lat="39.715078" lon="-5.723196">
        <ele>476.8</ele>
        <time>2019-05-09T13:43:45Z</time>
      </trkpt>
      <trkpt lat="39.714857" lon="-5.722986">
        <ele>476.4</ele>
        <time>2019-05-09T13:44:03Z</time>
      </trkpt>
      <trkpt lat="39.714814" lon="-5.722911">
        <ele>476.3</ele>
        <time>2019-05-09T13:44:04Z</time>
      </trkpt>
      <trkpt lat="39.714828" lon="-5.722626">
        <ele>476.9</ele>
        <time>2019-05-09T13:44:08Z</time>
      </trkpt>
      <trkpt lat="39.714756" lon="-5.722354">
        <ele>478.9</ele>
        <time>2019-05-09T13:44:20Z</time>
      </trkpt>
      <trkpt lat="39.714690" lon="-5.721924">
        <ele>478.5</ele>
        <time>2019-05-09T13:44:26Z</time>
      </trkpt>
      <trkpt lat="39.714618" lon="-5.721565">
        <ele>479.3</ele>
        <time>2019-05-09T13:44:32Z</time>
      </trkpt>
      <trkpt lat="39.714440" lon="-5.720980">
        <ele>477.5</ele>
        <time>2019-05-09T13:44:43Z</time>
      </trkpt>
      <trkpt lat="39.714482" lon="-5.720452">
        <ele>477.4</ele>
        <time>2019-05-09T13:44:53Z</time>
      </trkpt>
      <trkpt lat="39.714463" lon="-5.720328">
        <ele>478.0</ele>
        <time>2019-05-09T13:45:31Z</time>
      </trkpt>
      <trkpt lat="39.714350" lon="-5.720163">
        <ele>477.4</ele>
        <time>2019-05-09T13:45:40Z</time>
      </trkpt>
      <trkpt lat="39.714251" lon="-5.720055">
        <ele>478.5</ele>
        <time>2019-05-09T13:45:41Z</time>
      </trkpt>
      <trkpt lat="39.714024" lon="-5.719897">
        <ele>479.9</ele>
        <time>2019-05-09T13:45:42Z</time>
      </trkpt>
      <trkpt lat="39.713993" lon="-5.719816">
        <ele>479.9</ele>
        <time>2019-05-09T13:45:42Z</time>
      </trkpt>
      <trkpt lat="39.713974" lon="-5.719709">
        <ele>479.8</ele>
        <time>2019-05-09T13:45:43Z</time>
      </trkpt>
      <trkpt lat="39.714063" lon="-5.719384">
        <ele>478.9</ele>
        <time>2019-05-09T13:45:58Z</time>
      </trkpt>
      <trkpt lat="39.714022" lon="-5.718668">
        <ele>478.9</ele>
        <time>2019-05-09T13:45:58Z</time>
      </trkpt>
      <trkpt lat="39.713935" lon="-5.718175">
        <ele>480.7</ele>
        <time>2019-05-09T13:46:14Z</time>
      </trkpt>
      <trkpt lat="39.713858" lon="-5.717923">
        <ele>480.8</ele>
        <time>2019-05-09T13:46:46Z</time>
      </trkpt>
      <trkpt lat="39.713736" lon="-5.717652">
        <ele>480.6</ele>
        <time>2019-05-09T13:46:56Z</time>
      </trkpt>
      <trkpt lat="39.713416" lon="-5.717028">
        <ele>479.0</ele>
        <time>2019-05-09T13:47:11Z</time>
      </trkpt>
      <trkpt lat="39.713370" lon="-5.716992">
        <ele>479.0</ele>
        <time>2019-05-09T13:47:11Z</time>
      </trkpt>
      <trkpt lat="39.713293" lon="-5.716833">
        <ele>478.9</ele>
        <time>2019-05-09T13:47:16Z</time>
      </trkpt>
      <trkpt lat="39.713243" lon="-5.716654">
        <ele>478.9</ele>
        <time>2019-05-09T13:47:18Z</time>
      </trkpt>
      <trkpt lat="39.713229" lon="-5.716318">
        <ele>477.8</ele>
        <time>2019-05-09T13:47:20Z</time>
      </trkpt>
      <trkpt lat="39.713165" lon="-5.715842">
        <ele>475.6</ele>
        <time>2019-05-09T13:47:29Z</time>
      </trkpt>
      <trkpt lat="39.713165" lon="-5.715090">
        <ele>474.8</ele>
        <time>2019-05-09T13:47:43Z</time>
      </trkpt>
      <trkpt lat="39.713127" lon="-5.714870">
        <ele>473.2</ele>
        <time>2019-05-09T13:48:59Z</time>
      </trkpt>
      <trkpt lat="39.713002" lon="-5.714567">
        <ele>471.8</ele>
        <time>2019-05-09T13:49:13Z</time>
      </trkpt>
      <trkpt lat="39.712980" lon="-5.714336">
        <ele>470.8</ele>
        <time>2019-05-09T13:49:24Z</time>
      </trkpt>
      <trkpt lat="39.712862" lon="-5.713913">
        <ele>470.9</ele>
        <time>2019-05-09T13:49:51Z</time>
      </trkpt>
      <trkpt lat="39.712528" lon="-5.713258">
        <ele>465.9</ele>
        <time>2019-05-09T13:50:05Z</time>
      </trkpt>
      <trkpt lat="39.712507" lon="-5.713017">
        <ele>465.0</ele>
        <time>2019-05-09T13:50:07Z</time>
      </trkpt>
      <trkpt lat="39.712338" lon="-5.712445">
        <ele>465.0</ele>
        <time>2019-05-09T13:50:07Z</time>
      </trkpt>
      <trkpt lat="39.712326" lon="-5.712343">
        <ele>464.7</ele>
        <time>2019-05-09T13:50:14Z</time>
      </trkpt>
      <trkpt lat="39.712461" lon="-5.711958">
        <ele>468.1</ele>
        <time>2019-05-09T13:50:18Z</time>
      </trkpt>
      <trkpt lat="39.711845" lon="-5.710452">
        <ele>466.6</ele>
        <time>2019-05-09T13:51:46Z</time>
      </trkpt>
      <trkpt lat="39.711803" lon="-5.710391">
        <ele>466.9</ele>
        <time>2019-05-09T13:51:52Z</time>
      </trkpt>
      <trkpt lat="39.711715" lon="-5.710310">
        <ele>466.9</ele>
        <time>2019-05-09T13:51:52Z</time>
      </trkpt>
      <trkpt lat="39.711642" lon="-5.710208">
        <ele>467.8</ele>
        <time>2019-05-09T13:51:58Z</time>
      </trkpt>
      <trkpt lat="39.711579" lon="-5.710056">
        <ele>468.3</ele>
        <time>2019-05-09T13:51:59Z</time>
      </trkpt>
      <trkpt lat="39.711472" lon="-5.709581">
        <ele>471.2</ele>
        <time>2019-05-09T13:52:09Z</time>
      </trkpt>
      <trkpt lat="39.711277" lon="-5.709224">
        <ele>471.2</ele>
        <time>2019-05-09T13:52:09Z</time>
      </trkpt>
      <trkpt lat="39.711197" lon="-5.708918">
        <ele>468.6</ele>
        <time>2019-05-09T13:52:21Z</time>
      </trkpt>
      <trkpt lat="39.711203" lon="-5.708486">
        <ele>465.6</ele>
        <time>2019-05-09T13:52:28Z</time>
      </trkpt>
      <trkpt lat="39.711121" lon="-5.708283">
        <ele>465.6</ele>
        <time>2019-05-09T13:52:28Z</time>
      </trkpt>
      <trkpt lat="39.710973" lon="-5.707749">
        <ele>470.4</ele>
        <time>2019-05-09T13:52:41Z</time>
      </trkpt>
      <trkpt lat="39.710920" lon="-5.707609">
        <ele>470.4</ele>
        <time>2019-05-09T13:52:41Z</time>
      </trkpt>
      <trkpt lat="39.710759" lon="-5.707341">
        <ele>470.4</ele>
        <time>2019-05-09T13:52:41Z</time>
      </trkpt>
      <trkpt lat="39.710640" lon="-5.707113">
        <ele>470.4</ele>
        <time>2019-05-09T13:52:41Z</time>
      </trkpt>
      <trkpt lat="39.710586" lon="-5.706915">
        <ele>465.7</ele>
        <time>2019-05-09T13:52:57Z</time>
      </trkpt>
      <trkpt lat="39.710568" lon="-5.706756">
        <ele>464.2</ele>
        <time>2019-05-09T13:52:59Z</time>
      </trkpt>
      <trkpt lat="39.710584" lon="-5.706606">
        <ele>464.9</ele>
        <time>2019-05-09T13:53:00Z</time>
      </trkpt>
      <trkpt lat="39.710619" lon="-5.706435">
        <ele>464.9</ele>
        <time>2019-05-09T13:53:00Z</time>
      </trkpt>
      <trkpt lat="39.710619" lon="-5.706322">
        <ele>464.2</ele>
        <time>2019-05-09T13:53:04Z</time>
      </trkpt>
      <trkpt lat="39.710566" lon="-5.706070">
        <ele>464.2</ele>
        <time>2019-05-09T13:53:04Z</time>
      </trkpt>
      <trkpt lat="39.710594" lon="-5.705708">
        <ele>464.0</ele>
        <time>2019-05-09T13:53:07Z</time>
      </trkpt>
      <trkpt lat="39.710539" lon="-5.705439">
        <ele>469.6</ele>
        <time>2019-05-09T13:53:18Z</time>
      </trkpt>
      <trkpt lat="39.710213" lon="-5.704662">
        <ele>469.6</ele>
        <time>2019-05-09T13:53:18Z</time>
      </trkpt>
      <trkpt lat="39.710027" lon="-5.704190">
        <ele>472.9</ele>
        <time>2019-05-09T13:53:57Z</time>
      </trkpt>
      <trkpt lat="39.709620" lon="-5.703058">
        <ele>472.9</ele>
        <time>2019-05-09T13:53:57Z</time>
      </trkpt>
      <trkpt lat="39.709552" lon="-5.702835">
        <ele>472.9</ele>
        <time>2019-05-09T13:53:57Z</time>
      </trkpt>
      <trkpt lat="39.709511" lon="-5.702733">
        <ele>476.3</ele>
        <time>2019-05-09T13:54:27Z</time>
      </trkpt>
      <trkpt lat="39.709400" lon="-5.702529">
        <ele>477.0</ele>
        <time>2019-05-09T13:54:32Z</time>
      </trkpt>
      <trkpt lat="39.709292" lon="-5.702500">
        <ele>477.7</ele>
        <time>2019-05-09T13:55:45Z</time>
      </trkpt>
      <trkpt lat="39.708789" lon="-5.701832">
        <ele>477.7</ele>
        <time>2019-05-09T13:56:23Z</time>
      </trkpt>
      <trkpt lat="39.708742" lon="-5.701789">
        <ele>477.7</ele>
        <time>2019-05-09T13:56:23Z</time>
      </trkpt>
      <trkpt lat="39.708595" lon="-5.701564">
        <ele>477.7</ele>
        <time>2019-05-09T13:56:23Z</time>
      </trkpt>
      <trkpt lat="39.708523" lon="-5.701478">
        <ele>481.3</ele>
        <time>2019-05-09T13:56:36Z</time>
      </trkpt>
      <trkpt lat="39.708236" lon="-5.701054">
        <ele>487.5</ele>
        <time>2019-05-09T13:56:54Z</time>
      </trkpt>
      <trkpt lat="39.708081" lon="-5.700907">
        <ele>489.0</ele>
        <time>2019-05-09T13:56:58Z</time>
      </trkpt>
      <trkpt lat="39.707941" lon="-5.700813">
        <ele>491.2</ele>
        <time>2019-05-09T13:57:13Z</time>
      </trkpt>
      <trkpt lat="39.707778" lon="-5.700759">
        <ele>491.2</ele>
        <time>2019-05-09T13:57:13Z</time>
      </trkpt>
      <trkpt lat="39.707512" lon="-5.700735">
        <ele>491.2</ele>
        <time>2019-05-09T13:57:13Z</time>
      </trkpt>
      <trkpt lat="39.707109" lon="-5.700646">
        <ele>492.9</ele>
        <time>2019-05-09T13:57:44Z</time>
      </trkpt>
      <trkpt lat="39.707000" lon="-5.700523">
        <ele>492.9</ele>
        <time>2019-05-09T13:57:44Z</time>
      </trkpt>
      <trkpt lat="39.706897" lon="-5.700381">
        <ele>492.5</ele>
        <time>2019-05-09T13:58:00Z</time>
      </trkpt>
      <trkpt lat="39.706719" lon="-5.700099">
        <ele>492.5</ele>
        <time>2019-05-09T13:58:00Z</time>
      </trkpt>
      <trkpt lat="39.706214" lon="-5.699367">
        <ele>493.6</ele>
        <time>2019-05-09T13:58:17Z</time>
      </trkpt>
      <trkpt lat="39.706135" lon="-5.699273">
        <ele>493.6</ele>
        <time>2019-05-09T13:58:17Z</time>
      </trkpt>
      <trkpt lat="39.706024" lon="-5.699112">
        <ele>492.8</ele>
        <time>2019-05-09T13:58:44Z</time>
      </trkpt>
      <trkpt lat="39.705981" lon="-5.698997">
        <ele>492.9</ele>
        <time>2019-05-09T13:58:46Z</time>
      </trkpt>
      <trkpt lat="39.705929" lon="-5.698712">
        <ele>491.9</ele>
        <time>2019-05-09T13:58:54Z</time>
      </trkpt>
      <trkpt lat="39.705769" lon="-5.698355">
        <ele>493.2</ele>
        <time>2019-05-09T13:58:55Z</time>
      </trkpt>
      <trkpt lat="39.705702" lon="-5.698136">
        <ele>493.2</ele>
        <time>2019-05-09T13:58:55Z</time>
      </trkpt>
      <trkpt lat="39.705671" lon="-5.698031">
        <ele>495.2</ele>
        <time>2019-05-09T13:59:07Z</time>
      </trkpt>
      <trkpt lat="39.705617" lon="-5.697401">
        <ele>495.9</ele>
        <time>2019-05-09T13:59:24Z</time>
      </trkpt>
      <trkpt lat="39.705547" lon="-5.697240">
        <ele>496.2</ele>
        <time>2019-05-09T14:00:07Z</time>
      </trkpt>
      <trkpt lat="39.705831" lon="-5.697063">
        <ele>492.4</ele>
        <time>2019-05-09T14:02:07Z</time>
      </trkpt>
      <trkpt lat="39.705954" lon="-5.696969">
        <ele>490.7</ele>
        <time>2019-05-09T14:02:11Z</time>
      </trkpt>
      <trkpt lat="39.706199" lon="-5.696812">
        <ele>487.5</ele>
        <time>2019-05-09T14:02:18Z</time>
      </trkpt>
      <trkpt lat="39.706942" lon="-5.696663">
        <ele>480.6</ele>
        <time>2019-05-09T14:02:40Z</time>
      </trkpt>
      <trkpt lat="39.707184" lon="-5.696631">
        <ele>478.4</ele>
        <time>2019-05-09T14:02:46Z</time>
      </trkpt>
      <trkpt lat="39.707305" lon="-5.696690">
        <ele>478.4</ele>
        <time>2019-05-09T14:02:46Z</time>
      </trkpt>
      <trkpt lat="39.707693" lon="-5.696969">
        <ele>471.9</ele>
        <time>2019-05-09T14:03:08Z</time>
      </trkpt>
      <trkpt lat="39.707889" lon="-5.697001">
        <ele>470.8</ele>
        <time>2019-05-09T14:03:35Z</time>
      </trkpt>
      <trkpt lat="39.707908" lon="-5.697090">
        <ele>470.8</ele>
        <time>2019-05-09T14:03:35Z</time>
      </trkpt>
      <trkpt lat="39.708032" lon="-5.697186">
        <ele>470.8</ele>
        <time>2019-05-09T14:03:35Z</time>
      </trkpt>
      <trkpt lat="39.708184" lon="-5.697249">
        <ele>470.5</ele>
        <time>2019-05-09T14:04:02Z</time>
      </trkpt>
      <trkpt lat="39.708461" lon="-5.697610">
        <ele>470.7</ele>
        <time>2019-05-09T14:04:30Z</time>
      </trkpt>
      <trkpt lat="39.708630" lon="-5.697940">
        <ele>470.7</ele>
        <time>2019-05-09T14:04:30Z</time>
      </trkpt>
      <trkpt lat="39.708690" lon="-5.698020">
        <ele>470.1</ele>
        <time>2019-05-09T14:04:43Z</time>
      </trkpt>
      <trkpt lat="39.708886" lon="-5.698352">
        <ele>472.0</ele>
        <time>2019-05-09T14:04:55Z</time>
      </trkpt>
      <trkpt lat="39.708981" lon="-5.698527">
        <ele>472.0</ele>
        <time>2019-05-09T14:04:55Z</time>
      </trkpt>
      <trkpt lat="39.709309" lon="-5.698989">
        <ele>471.2</ele>
        <time>2019-05-09T14:05:18Z</time>
      </trkpt>
      <trkpt lat="39.709325" lon="-5.699036">
        <ele>470.9</ele>
        <time>2019-05-09T14:05:29Z</time>
      </trkpt>
      <trkpt lat="39.709367" lon="-5.699029">
        <ele>470.4</ele>
        <time>2019-05-09T14:06:01Z</time>
      </trkpt>
      <trkpt lat="39.709705" lon="-5.698777">
        <ele>470.4</ele>
        <time>2019-05-09T14:06:01Z</time>
      </trkpt>
      <trkpt lat="39.709869" lon="-5.698592">
        <ele>469.7</ele>
        <time>2019-05-09T14:06:37Z</time>
      </trkpt>
      <trkpt lat="39.710079" lon="-5.698393">
        <ele>469.7</ele>
        <time>2019-05-09T14:06:37Z</time>
      </trkpt>
      <trkpt lat="39.710310" lon="-5.698364">
        <ele>469.5</ele>
        <time>2019-05-09T14:07:01Z</time>
      </trkpt>
      <trkpt lat="39.710534" lon="-5.698238">
        <ele>469.5</ele>
        <time>2019-05-09T14:07:01Z</time>
      </trkpt>
      <trkpt lat="39.710611" lon="-5.698167">
        <ele>465.0</ele>
        <time>2019-05-09T14:07:11Z</time>
      </trkpt>
      <trkpt lat="39.710852" lon="-5.697752">
        <ele>460.9</ele>
        <time>2019-05-09T14:07:16Z</time>
      </trkpt>
      <trkpt lat="39.710908" lon="-5.697634">
        <ele>460.3</ele>
        <time>2019-05-09T14:07:20Z</time>
      </trkpt>
      <trkpt lat="39.710956" lon="-5.697593">
        <ele>460.0</ele>
        <time>2019-05-09T14:07:30Z</time>
      </trkpt>
      <trkpt lat="39.710978" lon="-5.697497">
        <ele>460.0</ele>
        <time>2019-05-09T14:07:30Z</time>
      </trkpt>
      <trkpt lat="39.711046" lon="-5.697393">
        <ele>459.3</ele>
        <time>2019-05-09T14:08:37Z</time>
      </trkpt>
      <trkpt lat="39.711128" lon="-5.697211">
        <ele>455.3</ele>
        <time>2019-05-09T14:08:52Z</time>
      </trkpt>
      <trkpt lat="39.711162" lon="-5.697067">
        <ele>453.2</ele>
        <time>2019-05-09T14:08:54Z</time>
      </trkpt>
      <trkpt lat="39.711298" lon="-5.696952">
        <ele>451.5</ele>
        <time>2019-05-09T14:09:07Z</time>
      </trkpt>
      <trkpt lat="39.711340" lon="-5.696801">
        <ele>450.7</ele>
        <time>2019-05-09T14:09:17Z</time>
      </trkpt>
      <trkpt lat="39.711416" lon="-5.697015">
        <ele>451.2</ele>
        <time>2019-05-09T14:10:00Z</time>
      </trkpt>
      <trkpt lat="39.711494" lon="-5.697189">
        <ele>451.2</ele>
        <time>2019-05-09T14:10:00Z</time>
      </trkpt>
      <trkpt lat="39.711546" lon="-5.697261">
        <ele>451.2</ele>
        <time>2019-05-09T14:10:00Z</time>
      </trkpt>
      <trkpt lat="39.711593" lon="-5.697361">
        <ele>453.9</ele>
        <time>2019-05-09T14:10:46Z</time>
      </trkpt>
      <trkpt lat="39.711733" lon="-5.697787">
        <ele>456.2</ele>
        <time>2019-05-09T14:10:59Z</time>
      </trkpt>
      <trkpt lat="39.711839" lon="-5.698002">
        <ele>456.2</ele>
        <time>2019-05-09T14:10:59Z</time>
      </trkpt>
      <trkpt lat="39.711870" lon="-5.698329">
        <ele>458.6</ele>
        <time>2019-05-09T14:11:12Z</time>
      </trkpt>
      <trkpt lat="39.711995" lon="-5.698750">
        <ele>458.6</ele>
        <time>2019-05-09T14:11:12Z</time>
      </trkpt>
      <trkpt lat="39.712055" lon="-5.699093">
        <ele>458.6</ele>
        <time>2019-05-09T14:11:12Z</time>
      </trkpt>
      <trkpt lat="39.712142" lon="-5.699305">
        <ele>463.2</ele>
        <time>2019-05-09T14:11:43Z</time>
      </trkpt>
      <trkpt lat="39.712245" lon="-5.699536">
        <ele>463.2</ele>
        <time>2019-05-09T14:11:43Z</time>
      </trkpt>
      <trkpt lat="39.712296" lon="-5.699789">
        <ele>463.5</ele>
        <time>2019-05-09T14:11:58Z</time>
      </trkpt>
      <trkpt lat="39.712332" lon="-5.699874">
        <ele>463.5</ele>
        <time>2019-05-09T14:11:58Z</time>
      </trkpt>
      <trkpt lat="39.712264" lon="-5.699995">
        <ele>462.8</ele>
        <time>2019-05-09T14:13:22Z</time>
      </trkpt>
      <trkpt lat="39.712145" lon="-5.700277">
        <ele>462.5</ele>
        <time>2019-05-09T14:13:40Z</time>
      </trkpt>
      <trkpt lat="39.712179" lon="-5.700414">
        <ele>461.7</ele>
        <time>2019-05-09T14:14:59Z</time>
      </trkpt>
      <trkpt lat="39.712212" lon="-5.700660">
        <ele>461.7</ele>
        <time>2019-05-09T14:14:59Z</time>
      </trkpt>
      <trkpt lat="39.712177" lon="-5.701366">
        <ele>457.1</ele>
        <time>2019-05-09T14:15:31Z</time>
      </trkpt>
      <trkpt lat="39.712156" lon="-5.701513">
        <ele>456.0</ele>
        <time>2019-05-09T14:16:01Z</time>
      </trkpt>
      <trkpt lat="39.712144" lon="-5.702092">
        <ele>456.0</ele>
        <time>2019-05-09T14:16:01Z</time>
      </trkpt>
      <trkpt lat="39.712167" lon="-5.702457">
        <ele>448.4</ele>
        <time>2019-05-09T14:16:16Z</time>
      </trkpt>
      <trkpt lat="39.712272" lon="-5.702949">
        <ele>445.3</ele>
        <time>2019-05-09T14:16:24Z</time>
      </trkpt>
      <trkpt lat="39.712266" lon="-5.703066">
        <ele>444.9</ele>
        <time>2019-05-09T14:16:26Z</time>
      </trkpt>
      <trkpt lat="39.712193" lon="-5.703300">
        <ele>444.8</ele>
        <time>2019-05-09T14:16:56Z</time>
      </trkpt>
      <trkpt lat="39.712196" lon="-5.703497">
        <ele>444.4</ele>
        <time>2019-05-09T14:17:25Z</time>
      </trkpt>
      <trkpt lat="39.712170" lon="-5.703543">
        <ele>444.5</ele>
        <time>2019-05-09T14:18:29Z</time>
      </trkpt>
      <trkpt lat="39.712219" lon="-5.703682">
        <ele>443.3</ele>
        <time>2019-05-09T14:19:03Z</time>
      </trkpt>
      <trkpt lat="39.712174" lon="-5.703988">
        <ele>440.0</ele>
        <time>2019-05-09T14:19:22Z</time>
      </trkpt>
      <trkpt lat="39.712174" lon="-5.704095">
        <ele>439.9</ele>
        <time>2019-05-09T14:19:26Z</time>
      </trkpt>
      <trkpt lat="39.712266" lon="-5.704130">
        <ele>440.2</ele>
        <time>2019-05-09T14:19:56Z</time>
      </trkpt>
      <trkpt lat="39.712336" lon="-5.704192">
        <ele>440.1</ele>
        <time>2019-05-09T14:20:27Z</time>
      </trkpt>
      <trkpt lat="39.712482" lon="-5.704506">
        <ele>439.3</ele>
        <time>2019-05-09T14:20:39Z</time>
      </trkpt>
      <trkpt lat="39.712516" lon="-5.704567">
        <ele>439.0</ele>
        <time>2019-05-09T14:20:41Z</time>
      </trkpt>
      <trkpt lat="39.712818" lon="-5.704904">
        <ele>436.9</ele>
        <time>2019-05-09T14:20:56Z</time>
      </trkpt>
      <trkpt lat="39.713078" lon="-5.705303">
        <ele>434.5</ele>
        <time>2019-05-09T14:21:16Z</time>
      </trkpt>
      <trkpt lat="39.713116" lon="-5.705667">
        <ele>432.4</ele>
        <time>2019-05-09T14:21:27Z</time>
      </trkpt>
      <trkpt lat="39.713221" lon="-5.706090">
        <ele>432.4</ele>
        <time>2019-05-09T14:21:40Z</time>
      </trkpt>
      <trkpt lat="39.713309" lon="-5.706305">
        <ele>431.1</ele>
        <time>2019-05-09T14:21:51Z</time>
      </trkpt>
      <trkpt lat="39.713445" lon="-5.706431">
        <ele>430.8</ele>
        <time>2019-05-09T14:22:02Z</time>
      </trkpt>
      <trkpt lat="39.713639" lon="-5.706513">
        <ele>431.1</ele>
        <time>2019-05-09T14:22:13Z</time>
      </trkpt>
      <trkpt lat="39.713957" lon="-5.706838">
        <ele>429.2</ele>
        <time>2019-05-09T14:22:50Z</time>
      </trkpt>
      <trkpt lat="39.714423" lon="-5.707043">
        <ele>426.6</ele>
        <time>2019-05-09T14:25:45Z</time>
      </trkpt>
      <trkpt lat="39.714434" lon="-5.707082">
        <ele>426.3</ele>
        <time>2019-05-09T14:25:49Z</time>
      </trkpt>
      <trkpt lat="39.714506" lon="-5.707115">
        <ele>426.5</ele>
        <time>2019-05-09T14:26:02Z</time>
      </trkpt>
      <trkpt lat="39.714636" lon="-5.707253">
        <ele>425.7</ele>
        <time>2019-05-09T14:26:13Z</time>
      </trkpt>
      <trkpt lat="39.714747" lon="-5.707381">
        <ele>425.5</ele>
        <time>2019-05-09T14:26:17Z</time>
      </trkpt>
      <trkpt lat="39.714829" lon="-5.707428">
        <ele>425.9</ele>
        <time>2019-05-09T14:26:22Z</time>
      </trkpt>
      <trkpt lat="39.714895" lon="-5.707519">
        <ele>425.2</ele>
        <time>2019-05-09T14:26:31Z</time>
      </trkpt>
      <trkpt lat="39.715053" lon="-5.707679">
        <ele>424.6</ele>
        <time>2019-05-09T14:27:01Z</time>
      </trkpt>
      <trkpt lat="39.715193" lon="-5.707711">
        <ele>423.0</ele>
        <time>2019-05-09T14:27:23Z</time>
      </trkpt>
      <trkpt lat="39.715375" lon="-5.707888">
        <ele>421.3</ele>
        <time>2019-05-09T14:27:36Z</time>
      </trkpt>
      <trkpt lat="39.715700" lon="-5.708316">
        <ele>420.3</ele>
        <time>2019-05-09T14:27:47Z</time>
      </trkpt>
      <trkpt lat="39.715708" lon="-5.708387">
        <ele>419.6</ele>
        <time>2019-05-09T14:28:06Z</time>
      </trkpt>
      <trkpt lat="39.715820" lon="-5.708624">
        <ele>418.6</ele>
        <time>2019-05-09T14:28:17Z</time>
      </trkpt>
      <trkpt lat="39.715998" lon="-5.708852">
        <ele>419.0</ele>
        <time>2019-05-09T14:28:29Z</time>
      </trkpt>
      <trkpt lat="39.716415" lon="-5.709294">
        <ele>419.0</ele>
        <time>2019-05-09T14:28:29Z</time>
      </trkpt>
      <trkpt lat="39.716593" lon="-5.709468">
        <ele>418.6</ele>
        <time>2019-05-09T14:29:00Z</time>
      </trkpt>
      <trkpt lat="39.716610" lon="-5.709541">
        <ele>418.0</ele>
        <time>2019-05-09T14:29:06Z</time>
      </trkpt>
      <trkpt lat="39.716590" lon="-5.709669">
        <ele>416.7</ele>
        <time>2019-05-09T14:29:11Z</time>
      </trkpt>
      <trkpt lat="39.716625" lon="-5.709800">
        <ele>416.1</ele>
        <time>2019-05-09T14:29:16Z</time>
      </trkpt>
      <trkpt lat="39.716681" lon="-5.709870">
        <ele>415.9</ele>
        <time>2019-05-09T14:29:20Z</time>
      </trkpt>
      <trkpt lat="39.716698" lon="-5.709917">
        <ele>415.5</ele>
        <time>2019-05-09T14:29:22Z</time>
      </trkpt>
      <trkpt lat="39.716821" lon="-5.710051">
        <ele>415.0</ele>
        <time>2019-05-09T14:29:34Z</time>
      </trkpt>
      <trkpt lat="39.716997" lon="-5.710140">
        <ele>415.0</ele>
        <time>2019-05-09T14:29:55Z</time>
      </trkpt>
      <trkpt lat="39.717217" lon="-5.710190">
        <ele>414.4</ele>
        <time>2019-05-09T14:30:26Z</time>
      </trkpt>
      <trkpt lat="39.717277" lon="-5.710242">
        <ele>414.3</ele>
        <time>2019-05-09T14:30:32Z</time>
      </trkpt>
      <trkpt lat="39.717336" lon="-5.710322">
        <ele>414.3</ele>
        <time>2019-05-09T14:30:49Z</time>
      </trkpt>
      <trkpt lat="39.717444" lon="-5.710421">
        <ele>413.6</ele>
        <time>2019-05-09T14:31:21Z</time>
      </trkpt>
      <trkpt lat="39.717508" lon="-5.710493">
        <ele>413.9</ele>
        <time>2019-05-09T14:31:35Z</time>
      </trkpt>
      <trkpt lat="39.717595" lon="-5.710570">
        <ele>414.6</ele>
        <time>2019-05-09T14:31:58Z</time>
      </trkpt>
      <trkpt lat="39.717641" lon="-5.710629">
        <ele>414.2</ele>
        <time>2019-05-09T14:32:05Z</time>
      </trkpt>
      <trkpt lat="39.717681" lon="-5.710661">
        <ele>413.9</ele>
        <time>2019-05-09T14:32:11Z</time>
      </trkpt>
      <trkpt lat="39.717708" lon="-5.710706">
        <ele>413.7</ele>
        <time>2019-05-09T14:32:16Z</time>
      </trkpt>
      <trkpt lat="39.717750" lon="-5.710820">
        <ele>413.4</ele>
        <time>2019-05-09T14:32:29Z</time>
      </trkpt>
      <trkpt lat="39.717768" lon="-5.710840">
        <ele>413.5</ele>
        <time>2019-05-09T14:32:32Z</time>
      </trkpt>
      <trkpt lat="39.717759" lon="-5.710889">
        <ele>412.6</ele>
        <time>2019-05-09T14:32:36Z</time>
      </trkpt>
      <trkpt lat="39.717811" lon="-5.711105">
        <ele>411.3</ele>
        <time>2019-05-09T14:32:51Z</time>
      </trkpt>
      <trkpt lat="39.717946" lon="-5.711354">
        <ele>410.2</ele>
        <time>2019-05-09T14:33:09Z</time>
      </trkpt>
      <trkpt lat="39.718114" lon="-5.711542">
        <ele>409.5</ele>
        <time>2019-05-09T14:33:22Z</time>
      </trkpt>
      <trkpt lat="39.718134" lon="-5.711588">
        <ele>409.1</ele>
        <time>2019-05-09T14:33:33Z</time>
      </trkpt>
      <trkpt lat="39.718219" lon="-5.711660">
        <ele>409.9</ele>
        <time>2019-05-09T14:33:51Z</time>
      </trkpt>
      <trkpt lat="39.718406" lon="-5.711992">
        <ele>408.7</ele>
        <time>2019-05-09T14:34:03Z</time>
      </trkpt>
      <trkpt lat="39.718504" lon="-5.712077">
        <ele>409.3</ele>
        <time>2019-05-09T14:34:10Z</time>
      </trkpt>
      <trkpt lat="39.718661" lon="-5.712374">
        <ele>408.3</ele>
        <time>2019-05-09T14:34:32Z</time>
      </trkpt>
      <trkpt lat="39.718763" lon="-5.712531">
        <ele>408.6</ele>
        <time>2019-05-09T14:34:40Z</time>
      </trkpt>
      <trkpt lat="39.718840" lon="-5.712602">
        <ele>408.7</ele>
        <time>2019-05-09T14:34:45Z</time>
      </trkpt>
      <trkpt lat="39.718884" lon="-5.712627">
        <ele>409.4</ele>
        <time>2019-05-09T14:34:50Z</time>
      </trkpt>
      <trkpt lat="39.718992" lon="-5.712769">
        <ele>409.1</ele>
        <time>2019-05-09T14:35:06Z</time>
      </trkpt>
      <trkpt lat="39.719118" lon="-5.712860">
        <ele>408.7</ele>
        <time>2019-05-09T14:35:17Z</time>
      </trkpt>
      <trkpt lat="39.719397" lon="-5.712971">
        <ele>408.5</ele>
        <time>2019-05-09T14:35:49Z</time>
      </trkpt>
      <trkpt lat="39.719590" lon="-5.713084">
        <ele>407.2</ele>
        <time>2019-05-09T14:36:15Z</time>
      </trkpt>
      <trkpt lat="39.719848" lon="-5.713276">
        <ele>405.7</ele>
        <time>2019-05-09T14:36:43Z</time>
      </trkpt>
      <trkpt lat="39.719970" lon="-5.713363">
        <ele>405.6</ele>
        <time>2019-05-09T14:36:59Z</time>
      </trkpt>
      <trkpt lat="39.720134" lon="-5.713438">
        <ele>407.2</ele>
        <time>2019-05-09T14:37:21Z</time>
      </trkpt>
      <trkpt lat="39.720216" lon="-5.713643">
        <ele>406.1</ele>
        <time>2019-05-09T14:37:32Z</time>
      </trkpt>
      <trkpt lat="39.720182" lon="-5.713722">
        <ele>404.6</ele>
        <time>2019-05-09T14:37:49Z</time>
      </trkpt>
      <trkpt lat="39.720084" lon="-5.713771">
        <ele>402.4</ele>
        <time>2019-05-09T14:37:58Z</time>
      </trkpt>
      <trkpt lat="39.719999" lon="-5.713858">
        <ele>400.4</ele>
        <time>2019-05-09T14:38:07Z</time>
      </trkpt>
      <trkpt lat="39.720026" lon="-5.713980">
        <ele>400.6</ele>
        <time>2019-05-09T14:38:28Z</time>
      </trkpt>
      <trkpt lat="39.719994" lon="-5.714066">
        <ele>400.0</ele>
        <time>2019-05-09T14:38:44Z</time>
      </trkpt>
      <trkpt lat="39.719998" lon="-5.714228">
        <ele>399.9</ele>
        <time>2019-05-09T14:39:03Z</time>
      </trkpt>
      <trkpt lat="39.719982" lon="-5.714262">
        <ele>399.9</ele>
        <time>2019-05-09T14:39:06Z</time>
      </trkpt>
      <trkpt lat="39.720156" lon="-5.714731">
        <ele>399.3</ele>
        <time>2019-05-09T14:39:28Z</time>
      </trkpt>
      <trkpt lat="39.720296" lon="-5.715069">
        <ele>398.5</ele>
        <time>2019-05-09T14:39:39Z</time>
      </trkpt>
      <trkpt lat="39.720358" lon="-5.715334">
        <ele>398.0</ele>
        <time>2019-05-09T14:39:46Z</time>
      </trkpt>
      <trkpt lat="39.720432" lon="-5.715439">
        <ele>397.5</ele>
        <time>2019-05-09T14:39:51Z</time>
      </trkpt>
      <trkpt lat="39.720603" lon="-5.715788">
        <ele>396.1</ele>
        <time>2019-05-09T14:40:05Z</time>
      </trkpt>
      <trkpt lat="39.720793" lon="-5.716026">
        <ele>396.1</ele>
        <time>2019-05-09T14:40:05Z</time>
      </trkpt>
      <trkpt lat="39.720849" lon="-5.716080">
        <ele>395.7</ele>
        <time>2019-05-09T14:40:15Z</time>
      </trkpt>
      <trkpt lat="39.720870" lon="-5.716101">
        <ele>395.6</ele>
        <time>2019-05-09T14:40:16Z</time>
      </trkpt>
      <trkpt lat="39.720978" lon="-5.716265">
        <ele>395.4</ele>
        <time>2019-05-09T14:40:23Z</time>
      </trkpt>
      <trkpt lat="39.721175" lon="-5.716687">
        <ele>394.3</ele>
        <time>2019-05-09T14:40:36Z</time>
      </trkpt>
      <trkpt lat="39.721197" lon="-5.716756">
        <ele>394.3</ele>
        <time>2019-05-09T14:40:36Z</time>
      </trkpt>
      <trkpt lat="39.721414" lon="-5.717058">
        <ele>393.4</ele>
        <time>2019-05-09T14:40:48Z</time>
      </trkpt>
      <trkpt lat="39.721688" lon="-5.717356">
        <ele>392.7</ele>
        <time>2019-05-09T14:41:03Z</time>
      </trkpt>
      <trkpt lat="39.721762" lon="-5.717403">
        <ele>393.0</ele>
        <time>2019-05-09T14:41:19Z</time>
      </trkpt>
      <trkpt lat="39.721778" lon="-5.717523">
        <ele>391.8</ele>
        <time>2019-05-09T14:41:31Z</time>
      </trkpt>
      <trkpt lat="39.721826" lon="-5.717610">
        <ele>390.6</ele>
        <time>2019-05-09T14:41:38Z</time>
      </trkpt>
      <trkpt lat="39.722092" lon="-5.717976">
        <ele>390.4</ele>
        <time>2019-05-09T14:41:51Z</time>
      </trkpt>
      <trkpt lat="39.722447" lon="-5.718441">
        <ele>389.2</ele>
        <time>2019-05-09T14:42:06Z</time>
      </trkpt>
      <trkpt lat="39.722475" lon="-5.718473">
        <ele>389.1</ele>
        <time>2019-05-09T14:42:07Z</time>
      </trkpt>
      <trkpt lat="39.722603" lon="-5.718690">
        <ele>388.2</ele>
        <time>2019-05-09T14:42:12Z</time>
      </trkpt>
      <trkpt lat="39.722821" lon="-5.719257">
        <ele>386.7</ele>
        <time>2019-05-09T14:42:24Z</time>
      </trkpt>
      <trkpt lat="39.722894" lon="-5.719604">
        <ele>388.3</ele>
        <time>2019-05-09T14:42:36Z</time>
      </trkpt>
      <trkpt lat="39.722835" lon="-5.720310">
        <ele>388.3</ele>
        <time>2019-05-09T14:42:36Z</time>
      </trkpt>
      <trkpt lat="39.722837" lon="-5.720452">
        <ele>390.9</ele>
        <time>2019-05-09T14:43:22Z</time>
      </trkpt>
      <trkpt lat="39.722866" lon="-5.720648">
        <ele>389.3</ele>
        <time>2019-05-09T14:43:30Z</time>
      </trkpt>
      <trkpt lat="39.722916" lon="-5.720752">
        <ele>389.3</ele>
        <time>2019-05-09T14:43:30Z</time>
      </trkpt>
      <trkpt lat="39.723052" lon="-5.720800">
        <ele>388.5</ele>
        <time>2019-05-09T14:43:38Z</time>
      </trkpt>
      <trkpt lat="39.723052" lon="-5.720865">
        <ele>386.8</ele>
        <time>2019-05-09T14:43:42Z</time>
      </trkpt>
      <trkpt lat="39.722966" lon="-5.721489">
        <ele>388.8</ele>
        <time>2019-05-09T14:44:05Z</time>
      </trkpt>
      <trkpt lat="39.722953" lon="-5.721591">
        <ele>390.4</ele>
        <time>2019-05-09T14:44:09Z</time>
      </trkpt>
      <trkpt lat="39.722960" lon="-5.721669">
        <ele>391.6</ele>
        <time>2019-05-09T14:44:12Z</time>
      </trkpt>
      <trkpt lat="39.722918" lon="-5.721846">
        <ele>393.4</ele>
        <time>2019-05-09T14:44:22Z</time>
      </trkpt>
      <trkpt lat="39.722870" lon="-5.721932">
        <ele>394.1</ele>
        <time>2019-05-09T14:44:37Z</time>
      </trkpt>
      <trkpt lat="39.722834" lon="-5.721962">
        <ele>393.5</ele>
        <time>2019-05-09T14:44:58Z</time>
      </trkpt>
      <trkpt lat="39.722786" lon="-5.722024">
        <ele>394.0</ele>
        <time>2019-05-09T14:45:22Z</time>
      </trkpt>
      <trkpt lat="39.722623" lon="-5.722286">
        <ele>394.0</ele>
        <time>2019-05-09T14:45:22Z</time>
      </trkpt>
      <trkpt lat="39.722562" lon="-5.722413">
        <ele>397.4</ele>
        <time>2019-05-09T14:45:51Z</time>
      </trkpt>
      <trkpt lat="39.722516" lon="-5.722548">
        <ele>397.4</ele>
        <time>2019-05-09T14:45:51Z</time>
      </trkpt>
      <trkpt lat="39.722470" lon="-5.723137">
        <ele>406.3</ele>
        <time>2019-05-09T14:46:21Z</time>
      </trkpt>
      <trkpt lat="39.722431" lon="-5.723346">
        <ele>410.6</ele>
        <time>2019-05-09T14:46:35Z</time>
      </trkpt>
      <trkpt lat="39.722350" lon="-5.723464">
        <ele>410.6</ele>
        <time>2019-05-09T14:46:35Z</time>
      </trkpt>
      <trkpt lat="39.721882" lon="-5.723614">
        <ele>415.3</ele>
        <time>2019-05-09T14:47:06Z</time>
      </trkpt>
      <trkpt lat="39.721589" lon="-5.723676">
        <ele>418.1</ele>
        <time>2019-05-09T14:47:18Z</time>
      </trkpt>
      <trkpt lat="39.721408" lon="-5.723761">
        <ele>420.7</ele>
        <time>2019-05-09T14:47:32Z</time>
      </trkpt>
      <trkpt lat="39.721278" lon="-5.723920">
        <ele>420.7</ele>
        <time>2019-05-09T14:47:32Z</time>
      </trkpt>
      <trkpt lat="39.721144" lon="-5.724134">
        <ele>422.4</ele>
        <time>2019-05-09T14:47:47Z</time>
      </trkpt>
      <trkpt lat="39.720766" lon="-5.724419">
        <ele>424.8</ele>
        <time>2019-05-09T14:48:00Z</time>
      </trkpt>
      <trkpt lat="39.720679" lon="-5.724529">
        <ele>427.4</ele>
        <time>2019-05-09T14:48:15Z</time>
      </trkpt>
      <trkpt lat="39.720613" lon="-5.724714">
        <ele>427.4</ele>
        <time>2019-05-09T14:48:15Z</time>
      </trkpt>
      <trkpt lat="39.720485" lon="-5.724953">
        <ele>428.6</ele>
        <time>2019-05-09T14:48:32Z</time>
      </trkpt>
      <trkpt lat="39.720356" lon="-5.725049">
        <ele>428.6</ele>
        <time>2019-05-09T14:48:32Z</time>
      </trkpt>
      <trkpt lat="39.720236" lon="-5.725081">
        <ele>428.6</ele>
        <time>2019-05-09T14:48:32Z</time>
      </trkpt>
      <trkpt lat="39.719846" lon="-5.725030">
        <ele>434.5</ele>
        <time>2019-05-09T14:48:56Z</time>
      </trkpt>
      <trkpt lat="39.719625" lon="-5.725052">
        <ele>437.4</ele>
        <time>2019-05-09T14:49:07Z</time>
      </trkpt>
      <trkpt lat="39.719539" lon="-5.725124">
        <ele>437.4</ele>
        <time>2019-05-09T14:49:07Z</time>
      </trkpt>
      <trkpt lat="39.719454" lon="-5.725258">
        <ele>437.4</ele>
        <time>2019-05-09T14:49:07Z</time>
      </trkpt>
      <trkpt lat="39.719186" lon="-5.725881">
        <ele>440.0</ele>
        <time>2019-05-09T14:49:24Z</time>
      </trkpt>
      <trkpt lat="39.719147" lon="-5.726015">
        <ele>442.2</ele>
        <time>2019-05-09T14:49:41Z</time>
      </trkpt>
      <trkpt lat="39.719083" lon="-5.726526">
        <ele>444.1</ele>
        <time>2019-05-09T14:50:07Z</time>
      </trkpt>
      <trkpt lat="39.719181" lon="-5.726573">
        <ele>443.5</ele>
        <time>2019-05-09T14:51:48Z</time>
      </trkpt>
      <trkpt lat="39.719223" lon="-5.726695">
        <ele>443.4</ele>
        <time>2019-05-09T14:52:01Z</time>
      </trkpt>
      <trkpt lat="39.719243" lon="-5.726721">
        <ele>443.3</ele>
        <time>2019-05-09T14:56:17Z</time>
      </trkpt>
      <trkpt lat="39.719592" lon="-5.726918">
        <ele>442.3</ele>
        <time>2019-05-09T14:56:34Z</time>
      </trkpt>
      <trkpt lat="39.720195" lon="-5.726854">
        <ele>439.8</ele>
        <time>2019-05-09T14:56:54Z</time>
      </trkpt>
      <trkpt lat="39.720754" lon="-5.727227">
        <ele>438.3</ele>
        <time>2019-05-09T14:56:58Z</time>
      </trkpt>
      <trkpt lat="39.721038" lon="-5.727391">
        <ele>438.3</ele>
        <time>2019-05-09T14:56:58Z</time>
      </trkpt>
      <trkpt lat="39.721090" lon="-5.727442">
        <ele>433.7</ele>
        <time>2019-05-09T14:57:25Z</time>
      </trkpt>
      <trkpt lat="39.721269" lon="-5.727632">
        <ele>429.7</ele>
        <time>2019-05-09T14:57:32Z</time>
      </trkpt>
      <trkpt lat="39.721345" lon="-5.727901">
        <ele>423.1</ele>
        <time>2019-05-09T14:57:45Z</time>
      </trkpt>
      <trkpt lat="39.721282" lon="-5.727979">
        <ele>421.9</ele>
        <time>2019-05-09T14:57:49Z</time>
      </trkpt>
      <trkpt lat="39.720967" lon="-5.728122">
        <ele>421.7</ele>
        <time>2019-05-09T14:58:41Z</time>
      </trkpt>
      <trkpt lat="39.720880" lon="-5.728299">
        <ele>421.2</ele>
        <time>2019-05-09T14:58:54Z</time>
      </trkpt>
      <trkpt lat="39.720853" lon="-5.728399">
        <ele>421.9</ele>
        <time>2019-05-09T14:59:08Z</time>
      </trkpt>
      <trkpt lat="39.720855" lon="-5.728504">
        <ele>422.8</ele>
        <time>2019-05-09T14:59:32Z</time>
      </trkpt>
      <trkpt lat="39.720894" lon="-5.728571">
        <ele>423.5</ele>
        <time>2019-05-09T14:59:51Z</time>
      </trkpt>
      <trkpt lat="39.720995" lon="-5.728798">
        <ele>425.7</ele>
        <time>2019-05-09T15:00:16Z</time>
      </trkpt>
      <trkpt lat="39.721222" lon="-5.729117">
        <ele>426.8</ele>
        <time>2019-05-09T15:00:40Z</time>
      </trkpt>
      <trkpt lat="39.721404" lon="-5.729336">
        <ele>428.7</ele>
        <time>2019-05-09T15:00:50Z</time>
      </trkpt>
      <trkpt lat="39.721504" lon="-5.729433">
        <ele>431.1</ele>
        <time>2019-05-09T15:01:00Z</time>
      </trkpt>
      <trkpt lat="39.721647" lon="-5.729459">
        <ele>432.4</ele>
        <time>2019-05-09T15:01:16Z</time>
      </trkpt>
      <trkpt lat="39.721688" lon="-5.729531">
        <ele>433.7</ele>
        <time>2019-05-09T15:01:22Z</time>
      </trkpt>
      <trkpt lat="39.721776" lon="-5.729770">
        <ele>437.5</ele>
        <time>2019-05-09T15:01:41Z</time>
      </trkpt>
      <trkpt lat="39.721742" lon="-5.729959">
        <ele>439.6</ele>
        <time>2019-05-09T15:01:55Z</time>
      </trkpt>
      <trkpt lat="39.721774" lon="-5.730239">
        <ele>440.1</ele>
        <time>2019-05-09T15:02:14Z</time>
      </trkpt>
      <trkpt lat="39.721548" lon="-5.730745">
        <ele>437.2</ele>
        <time>2019-05-09T15:02:36Z</time>
      </trkpt>
      <trkpt lat="39.721477" lon="-5.731062">
        <ele>436.8</ele>
        <time>2019-05-09T15:02:47Z</time>
      </trkpt>
      <trkpt lat="39.721573" lon="-5.731685">
        <ele>433.0</ele>
        <time>2019-05-09T15:03:12Z</time>
      </trkpt>
      <trkpt lat="39.721581" lon="-5.731739">
        <ele>433.0</ele>
        <time>2019-05-09T15:03:12Z</time>
      </trkpt>
      <trkpt lat="39.721618" lon="-5.731794">
        <ele>430.5</ele>
        <time>2019-05-09T15:03:22Z</time>
      </trkpt>
      <trkpt lat="39.721627" lon="-5.731931">
        <ele>428.4</ele>
        <time>2019-05-09T15:03:36Z</time>
      </trkpt>
      <trkpt lat="39.721678" lon="-5.731994">
        <ele>426.5</ele>
        <time>2019-05-09T15:03:44Z</time>
      </trkpt>
      <trkpt lat="39.721676" lon="-5.732044">
        <ele>426.5</ele>
        <time>2019-05-09T15:03:44Z</time>
      </trkpt>
      <trkpt lat="39.721692" lon="-5.732145">
        <ele>424.8</ele>
        <time>2019-05-09T15:03:55Z</time>
      </trkpt>
      <trkpt lat="39.721675" lon="-5.732321">
        <ele>425.8</ele>
        <time>2019-05-09T15:04:09Z</time>
      </trkpt>
      <trkpt lat="39.721625" lon="-5.732497">
        <ele>428.0</ele>
        <time>2019-05-09T15:04:52Z</time>
      </trkpt>
      <trkpt lat="39.721651" lon="-5.732560">
        <ele>428.9</ele>
        <time>2019-05-09T15:05:08Z</time>
      </trkpt>
      <trkpt lat="39.721678" lon="-5.732570">
        <ele>429.0</ele>
        <time>2019-05-09T15:05:27Z</time>
      </trkpt>
      <trkpt lat="39.721796" lon="-5.732693">
        <ele>430.1</ele>
        <time>2019-05-09T15:05:35Z</time>
      </trkpt>
      <trkpt lat="39.721847" lon="-5.732782">
        <ele>430.1</ele>
        <time>2019-05-09T15:05:35Z</time>
      </trkpt>
      <trkpt lat="39.722107" lon="-5.732921">
        <ele>433.5</ele>
        <time>2019-05-09T15:05:49Z</time>
      </trkpt>
      <trkpt lat="39.722208" lon="-5.732988">
        <ele>433.9</ele>
        <time>2019-05-09T15:05:54Z</time>
      </trkpt>
      <trkpt lat="39.722344" lon="-5.733216">
        <ele>432.4</ele>
        <time>2019-05-09T15:06:06Z</time>
      </trkpt>
      <trkpt lat="39.722379" lon="-5.733498">
        <ele>432.4</ele>
        <time>2019-05-09T15:06:06Z</time>
      </trkpt>
      <trkpt lat="39.722383" lon="-5.734040">
        <ele>430.9</ele>
        <time>2019-05-09T15:06:17Z</time>
      </trkpt>
      <trkpt lat="39.722468" lon="-5.734300">
        <ele>431.3</ele>
        <time>2019-05-09T15:06:25Z</time>
      </trkpt>
      <trkpt lat="39.722629" lon="-5.734415">
        <ele>431.3</ele>
        <time>2019-05-09T15:06:25Z</time>
      </trkpt>
      <trkpt lat="39.722910" lon="-5.734584">
        <ele>435.7</ele>
        <time>2019-05-09T15:06:45Z</time>
      </trkpt>
      <trkpt lat="39.723046" lon="-5.734834">
        <ele>439.1</ele>
        <time>2019-05-09T15:06:55Z</time>
      </trkpt>
      <trkpt lat="39.723145" lon="-5.735156">
        <ele>441.0</ele>
        <time>2019-05-09T15:07:37Z</time>
      </trkpt>
      <trkpt lat="39.723186" lon="-5.735282">
        <ele>441.1</ele>
        <time>2019-05-09T15:07:53Z</time>
      </trkpt>
      <trkpt lat="39.723246" lon="-5.735389">
        <ele>441.1</ele>
        <time>2019-05-09T15:07:53Z</time>
      </trkpt>
      <trkpt lat="39.723281" lon="-5.735502">
        <ele>440.4</ele>
        <time>2019-05-09T15:08:14Z</time>
      </trkpt>
      <trkpt lat="39.723339" lon="-5.736220">
        <ele>440.4</ele>
        <time>2019-05-09T15:08:14Z</time>
      </trkpt>
      <trkpt lat="39.723372" lon="-5.736322">
        <ele>434.3</ele>
        <time>2019-05-09T15:08:23Z</time>
      </trkpt>
      <trkpt lat="39.723877" lon="-5.737197">
        <ele>435.1</ele>
        <time>2019-05-09T15:08:34Z</time>
      </trkpt>
      <trkpt lat="39.723904" lon="-5.737449">
        <ele>435.7</ele>
        <time>2019-05-09T15:09:08Z</time>
      </trkpt>
      <trkpt lat="39.723844" lon="-5.737709">
        <ele>437.5</ele>
        <time>2019-05-09T15:09:21Z</time>
      </trkpt>
      <trkpt lat="39.723852" lon="-5.737806">
        <ele>437.5</ele>
        <time>2019-05-09T15:09:21Z</time>
      </trkpt>
      <trkpt lat="39.724011" lon="-5.738165">
        <ele>437.5</ele>
        <time>2019-05-09T15:09:21Z</time>
      </trkpt>
      <trkpt lat="39.724133" lon="-5.738530">
        <ele>439.7</ele>
        <time>2019-05-09T15:09:31Z</time>
      </trkpt>
      <trkpt lat="39.724172" lon="-5.738758">
        <ele>442.2</ele>
        <time>2019-05-09T15:09:39Z</time>
      </trkpt>
      <trkpt lat="39.724145" lon="-5.739013">
        <ele>442.7</ele>
        <time>2019-05-09T15:09:50Z</time>
      </trkpt>
      <trkpt lat="39.724261" lon="-5.739179">
        <ele>442.7</ele>
        <time>2019-05-09T15:09:50Z</time>
      </trkpt>
      <trkpt lat="39.724558" lon="-5.740094">
        <ele>446.3</ele>
        <time>2019-05-09T15:10:04Z</time>
      </trkpt>
      <trkpt lat="39.724723" lon="-5.740740">
        <ele>446.6</ele>
        <time>2019-05-09T15:10:17Z</time>
      </trkpt>
      <trkpt lat="39.724812" lon="-5.741011">
        <ele>445.9</ele>
        <time>2019-05-09T15:10:29Z</time>
      </trkpt>
      <trkpt lat="39.724824" lon="-5.741156">
        <ele>445.9</ele>
        <time>2019-05-09T15:10:31Z</time>
      </trkpt>
      <trkpt lat="39.724754" lon="-5.741280">
        <ele>447.6</ele>
        <time>2019-05-09T15:10:35Z</time>
      </trkpt>
      <trkpt lat="39.724746" lon="-5.741382">
        <ele>448.4</ele>
        <time>2019-05-09T15:10:46Z</time>
      </trkpt>
      <trkpt lat="39.724834" lon="-5.741555">
        <ele>448.4</ele>
        <time>2019-05-09T15:10:46Z</time>
      </trkpt>
      <trkpt lat="39.724939" lon="-5.741687">
        <ele>448.4</ele>
        <time>2019-05-09T15:10:46Z</time>
      </trkpt>
      <trkpt lat="39.725181" lon="-5.741939">
        <ele>449.0</ele>
        <time>2019-05-09T15:11:10Z</time>
      </trkpt>
      <trkpt lat="39.725267" lon="-5.742084">
        <ele>450.0</ele>
        <time>2019-05-09T15:11:22Z</time>
      </trkpt>
      <trkpt lat="39.725575" lon="-5.742591">
        <ele>452.0</ele>
        <time>2019-05-09T15:11:22Z</time>
      </trkpt>
      <trkpt lat="39.725609" lon="-5.742627">
        <ele>453.0</ele>
        <time>2019-05-09T15:11:37Z</time>
      </trkpt>
      <trkpt lat="39.725705" lon="-5.742789">
        <ele>451.0</ele>
        <time>2019-05-09T15:11:37Z</time>
      </trkpt>
      <trkpt lat="39.725816" lon="-5.742878">
        <ele>450.0</ele>
        <time>2019-05-09T15:11:56Z</time>
      </trkpt>
      <trkpt lat="39.725895" lon="-5.743028">
        <ele>450.0</ele>
        <time>2019-05-09T15:12:02Z</time>
      </trkpt>
      <trkpt lat="39.725969" lon="-5.743285">
        <ele>451.0</ele>
        <time>2019-05-09T15:12:09Z</time>
      </trkpt>
      <trkpt lat="39.726009" lon="-5.743320">
        <ele>450.0</ele>
        <time>2019-05-09T15:12:20Z</time>
      </trkpt>
      <trkpt lat="39.725981" lon="-5.743417">
        <ele>452.0</ele>
        <time>2019-05-09T15:12:20Z</time>
      </trkpt>
      <trkpt lat="39.726076" lon="-5.743607">
        <ele>452.0</ele>
        <time>2019-05-09T15:12:30Z</time>
      </trkpt>
      <trkpt lat="39.725905" lon="-5.743964">
        <ele>450.0</ele>
        <time>2019-05-09T15:12:51Z</time>
      </trkpt>
      <trkpt lat="39.725806" lon="-5.744109">
        <ele>448.0</ele>
        <time>2019-05-09T15:12:51Z</time>
      </trkpt>
      <trkpt lat="39.725757" lon="-5.744240">
        <ele>447.0</ele>
        <time>2019-05-09T15:12:54Z</time>
      </trkpt>
      <trkpt lat="39.725855" lon="-5.744346">
        <ele>445.0</ele>
        <time>2019-05-09T15:16:24Z</time>
      </trkpt>
      <trkpt lat="39.726118" lon="-5.744687">
        <ele>441.0</ele>
        <time>2019-05-09T15:16:33Z</time>
      </trkpt>
      <trkpt lat="39.726326" lon="-5.744810">
        <ele>440.0</ele>
        <time>2019-05-09T15:17:35Z</time>
      </trkpt>
    </trkseg>
  </trk>
  <wpt lat="39.726119" lon="-5.745125">
    <ele>-236.8</ele>
    <name>C.I. GEOLOGIA</name>
    <desc></desc>
    <sym>Airport</sym>
  </wpt>
  <wpt lat="39.712282" lon="-5.701797">
    <ele>459.9</ele>
    <name>DEHESA BOYAL</name>
    <desc></desc>
    <sym>Airport</sym>
  </wpt>
  <wpt lat="39.722633" lon="-5.720856">
    <ele>-236.8</ele>
    <name>EMBALSE DE ZAMORRO</name>
    <desc></desc>
    <sym>Airport</sym>
  </wpt>
  <wpt lat="39.724419" lon="-5.734552">
    <ele>-236.8</ele>
    <name>ERA DE LOS SANTOS</name>
    <desc></desc>
    <sym>Airport</sym>
  </wpt>
  <wpt lat="39.721338" lon="-5.736670">
    <ele>-236.8</ele>
    <name>FUENTE DE LA CASA</name>
    <desc></desc>
    <sym>Airport</sym>
  </wpt>
  <wpt lat="39.712963" lon="-5.715047">
    <ele>-236.8</ele>
    <name>LA PINUELA</name>
    <desc></desc>
    <sym>Airport</sym>
  </wpt>
  <wpt lat="39.722906" lon="-5.740045">
    <ele>-236.8</ele>
    <name>MERENDERO</name>
    <desc></desc>
    <sym>Airport</sym>
  </wpt>
  <wpt lat="39.722770" lon="-5.721929">
    <ele>-236.8</ele>
    <name>REFUGIO Y OBSERVATORIO DE AVES</name>
    <desc></desc>
    <sym>Airport</sym>
  </wpt>
  <wpt lat="39.705706" lon="-5.697159">
    <ele>501.1</ele>
    <name>VERJA 01</name>
    <desc></desc>
    <sym>Airport</sym>
  </wpt>
  <wpt lat="39.710958" lon="-5.697595">
    <ele>467.0</ele>
    <name>VERJA 02</name>
    <desc></desc>
    <sym>Airport</sym>
  </wpt>
  <wpt lat="39.712155" lon="-5.700347">
    <ele>472.1</ele>
    <name>VERJA 03</name>
    <desc></desc>
    <sym>Airport</sym>
  </wpt>
  <wpt lat="39.719231" lon="-5.726670">
    <ele>442.9</ele>
    <name>VERJA 04</name>
    <desc></desc>
    <sym>Airport</sym>
  </wpt>
</gpx>
